Impacts TAF Board INFO
FOR SITUATIONAL AWARENESS. NOT TO BE USED FOR FLIGHT PLANNING PURPOSES.
IDs:

KCLE - Cleveland/Hopkins In, OH, US

Issued at 1335 UTC 22 Feb 2018
Updated at 1441 UTC 22 Feb 2018
Potential Impact None Slight Moderate High
Time1431Z 22/15Z 22/16Z 22/17Z 22/18Z 22/19Z 22/20Z 22/21Z 22/22Z 22/23Z 23/00Z 23/01Z 23/02Z 23/03Z>>
Type OBS PRVL PRVL PRVL PRVL PRVL PRVL PRVL PRVL PRVL PRVL PRVL PRVL PRVL
VIS 9 >6 >6 >6 >6 >6 >6 >6 >6 >6 >6 >6 >6 >6
CIG 70 15 15 15 15 15 40 40 40 40 40 40 40 40
Cover OVC OVC OVC OVC OVC OVC OVC OVC OVC OVC OVC OVC OVC OVC
FltCat VFR MVFR MVFR MVFR MVFR MVFR VFR VFR VFR VFR VFR VFR VFR VFR
WX -RA -RA -RA -RA -RA -RA -- -- -- -- -- -- -- --
WDir 110 50 50 50 50 50 40 40 40 40 40 40 40 40
WSpd 12 10 10 10 10 10 12 12 12 12 12 12 12 12
WGst -- -- -- -- -- -- -- -- -- -- -- -- -- --

Raw TAF
KCLE 221335Z 2214/2318 04011KT P6SM -RAPL OVC060
  FM221500 05010KT P6SM -RA BKN015 OVC050
  FM222000 04012KT P6SM OVC040
  FM230900 11009KT P6SM -RA OVC015
  FM231300 13006KT 3SM -RA BR OVC015


Raw METAR
KCLE 221431Z 11012KT 9SM -RA BKN070 OVC080 02/00 A3053 RMK AO2 PLB12 P0001 T00170000 $
KCLE 221419Z 12011KT 7SM -RAPL OVC070 02/M01 A3053 RMK AO2 PLB12 P0001 T00171006 $
KCLE 221351Z 09008KT 6SM -RA BR FEW031 BKN055 OVC070 01/M01 A3056 RMK AO2 PLE50 SLP356 P0005 T00111006 $
KCLE 221251Z 05008KT 8SM -RAPL OVC070 01/M02 A3056 RMK AO2 RAB26SNE26PLB27 SLP356 P0003 T00111017 $
KCLE 221227Z 05009KT 9SM -RAPL OVC070 01/M02 A3056 RMK AO2 RAB26SNE26PLB27 P0001 T00111017 $
KCLE 221151Z 04008KT 9SM -SN OVC070 01/M01 A3056 RMK AO2 SLP356 P0000 60004 70030 I6000 T00111011 10011 20000 56004

METAR Board
Radar Display
Forecast Discussion

FOR SITUATIONAL AWARENESS. NOT TO BE USED FOR FLIGHT PLANNING PURPOSES.